sensor_id;sensor_type;location;lat;lon;timestamp;P1;durP1;ratioP1;P2;durP2;ratioP2
40951;SDS011;26682;51.660;19.338;2023-06-26T00:02:39;11.20;;;8.00;;
40951;SDS011;26682;51.660;19.338;2023-06-26T00:05:22;10.02;;;7.35;;
40951;SDS011;26682;51.660;19.338;2023-06-26T00:08:04;10.95;;;8.15;;
40951;SDS011;26682;51.660;19.338;2023-06-26T00:10:47;9.40;;;7.88;;
40951;SDS011;26682;51.660;19.338;2023-06-26T00:13:33;9.93;;;7.85;;
40951;SDS011;26682;51.660;19.338;2023-06-26T00:16:16;9.13;;;7.88;;
40951;SDS011;26682;51.660;19.338;2023-06-26T00:18:58;8.45;;;7.40;;
40951;SDS011;26682;51.660;19.338;2023-06-26T00:21:41;8.25;;;7.43;;
40951;SDS011;26682;51.660;19.338;2023-06-26T00:24:28;8.48;;;7.57;;
40951;SDS011;26682;51.660;19.338;2023-06-26T00:27:10;8.85;;;7.90;;
40951;SDS011;26682;51.660;19.338;2023-06-26T00:29:53;9.18;;;7.95;;
40951;SDS011;26682;51.660;19.338;2023-06-26T00:32:35;10.98;;;7.97;;
40951;SDS011;26682;51.660;19.338;2023-06-26T00:35:19;9.65;;;8.05;;
40951;SDS011;26682;51.660;19.338;2023-06-26T00:38:01;9.15;;;8.20;;
40951;SDS011;26682;51.660;19.338;2023-06-26T00:40:44;8.90;;;8.00;;
40951;SDS011;26682;51.660;19.338;2023-06-26T00:43:26;9.27;;;7.90;;
40951;SDS011;26682;51.660;19.338;2023-06-26T00:46:09;10.40;;;8.05;;
40951;SDS011;26682;51.660;19.338;2023-06-26T00:51:39;10.77;;;8.38;;
40951;SDS011;26682;51.660;19.338;2023-06-26T00:54:21;10.43;;;8.43;;
40951;SDS011;26682;51.660;19.338;2023-06-26T00:57:04;9.48;;;7.72;;
40951;SDS011;26682;51.660;19.338;2023-06-26T00:59:48;8.90;;;7.97;;
40951;SDS011;26682;51.660;19.338;2023-06-26T01:02:31;9.57;;;8.27;;
40951;SDS011;26682;51.660;19.338;2023-06-26T01:05:18;12.85;;;8.70;;
40951;SDS011;26682;51.660;19.338;2023-06-26T01:08:04;10.20;;;8.70;;
40951;SDS011;26682;51.660;19.338;2023-06-26T01:10:46;9.80;;;8.65;;
40951;SDS011;26682;51.660;19.338;2023-06-26T01:13:29;10.63;;;9.52;;
40951;SDS011;26682;51.660;19.338;2023-06-26T01:16:13;10.18;;;9.07;;
40951;SDS011;26682;51.660;19.338;2023-06-26T01:19:01;9.85;;;8.85;;
40951;SDS011;26682;51.660;19.338;2023-06-26T01:21:43;11.40;;;8.52;;
40951;SDS011;26682;51.660;19.338;2023-06-26T01:24:32;11.50;;;9.20;;
40951;SDS011;26682;51.660;19.338;2023-06-26T01:27:18;8.85;;;7.95;;
40951;SDS011;26682;51.660;19.338;2023-06-26T01:30:04;12.25;;;8.15;;
40951;SDS011;26682;51.660;19.338;2023-06-26T01:32:49;13.57;;;8.98;;
40951;SDS011;26682;51.660;19.338;2023-06-26T01:35:32;12.68;;;8.77;;
40951;SDS011;26682;51.660;19.338;2023-06-26T01:38:20;9.45;;;8.30;;
40951;SDS011;26682;51.660;19.338;2023-06-26T01:41:05;15.95;;;9.30;;
40951;SDS011;26682;51.660;19.338;2023-06-26T01:44:11;11.77;;;8.25;;
40951;SDS011;26682;51.660;19.338;2023-06-26T01:47:04;10.98;;;9.25;;
40951;SDS011;26682;51.660;19.338;2023-06-26T01:49:52;9.32;;;8.43;;
40951;SDS011;26682;51.660;19.338;2023-06-26T01:52:40;10.75;;;8.63;;
40951;SDS011;26682;51.660;19.338;2023-06-26T01:55:31;11.05;;;8.45;;
40951;SDS011;26682;51.660;19.338;2023-06-26T01:58:19;11.07;;;8.75;;
40951;SDS011;26682;51.660;19.338;2023-06-26T02:01:04;11.55;;;8.90;;
40951;SDS011;26682;51.660;19.338;2023-06-26T02:03:47;11.68;;;9.00;;
40951;SDS011;26682;51.660;19.338;2023-06-26T02:06:30;10.45;;;8.95;;
40951;SDS011;26682;51.660;19.338;2023-06-26T02:09:13;9.82;;;8.82;;
40951;SDS011;26682;51.660;19.338;2023-06-26T02:11:55;11.30;;;9.02;;
40951;SDS011;26682;51.660;19.338;2023-06-26T02:14:38;11.93;;;9.18;;
40951;SDS011;26682;51.660;19.338;2023-06-26T02:17:20;13.63;;;10.18;;
40951;SDS011;26682;51.660;19.338;2023-06-26T02:20:03;10.60;;;9.50;;
40951;SDS011;26682;51.660;19.338;2023-06-26T02:22:45;13.73;;;9.63;;
40951;SDS011;26682;51.660;19.338;2023-06-26T02:25:28;13.85;;;10.02;;
40951;SDS011;26682;51.660;19.338;2023-06-26T02:28:10;13.95;;;9.88;;
40951;SDS011;26682;51.660;19.338;2023-06-26T02:30:53;11.70;;;9.38;;
40951;SDS011;26682;51.660;19.338;2023-06-26T02:33:35;11.82;;;10.45;;
40951;SDS011;26682;51.660;19.338;2023-06-26T02:36:18;11.15;;;9.18;;
40951;SDS011;26682;51.660;19.338;2023-06-26T02:39:00;10.93;;;9.05;;
40951;SDS011;26682;51.660;19.338;2023-06-26T02:41:42;9.93;;;9.02;;
40951;SDS011;26682;51.660;19.338;2023-06-26T02:44:26;14.70;;;9.63;;
40951;SDS011;26682;51.660;19.338;2023-06-26T02:47:08;11.90;;;9.13;;
40951;SDS011;26682;51.660;19.338;2023-06-26T02:49:55;10.60;;;8.90;;
40951;SDS011;26682;51.660;19.338;2023-06-26T02:52:38;10.27;;;8.95;;
40951;SDS011;26682;51.660;19.338;2023-06-26T02:55:20;11.98;;;9.48;;
40951;SDS011;26682;51.660;19.338;2023-06-26T02:58:05;12.50;;;9.10;;
40951;SDS011;26682;51.660;19.338;2023-06-26T03:00:56;12.45;;;9.20;;
40951;SDS011;26682;51.660;19.338;2023-06-26T03:03:40;15.70;;;9.15;;
40951;SDS011;26682;51.660;19.338;2023-06-26T03:06:28;11.20;;;8.57;;
40951;SDS011;26682;51.660;19.338;2023-06-26T03:09:11;11.40;;;9.60;;
40951;SDS011;26682;51.660;19.338;2023-06-26T03:11:53;12.75;;;9.10;;
40951;SDS011;26682;51.660;19.338;2023-06-26T03:14:37;10.52;;;9.13;;
40951;SDS011;26682;51.660;19.338;2023-06-26T03:17:20;10.07;;;8.70;;
40951;SDS011;26682;51.660;19.338;2023-06-26T03:20:11;11.52;;;9.43;;
40951;SDS011;26682;51.660;19.338;2023-06-26T03:23:06;14.48;;;9.40;;
40951;SDS011;26682;51.660;19.338;2023-06-26T03:25:49;11.93;;;9.73;;
40951;SDS011;26682;51.660;19.338;2023-06-26T03:28:40;14.48;;;9.55;;
40951;SDS011;26682;51.660;19.338;2023-06-26T03:31:24;14.13;;;9.40;;
40951;SDS011;26682;51.660;19.338;2023-06-26T03:34:07;12.77;;;9.27;;
40951;SDS011;26682;51.660;19.338;2023-06-26T03:36:50;10.25;;;9.15;;
40951;SDS011;26682;51.660;19.338;2023-06-26T03:39:33;14.43;;;9.55;;
40951;SDS011;26682;51.660;19.338;2023-06-26T03:42:15;11.77;;;9.38;;
40951;SDS011;26682;51.660;19.338;2023-06-26T03:44:57;12.43;;;9.40;;
40951;SDS011;26682;51.660;19.338;2023-06-26T03:47:42;11.77;;;9.48;;
40951;SDS011;26682;51.660;19.338;2023-06-26T03:50:24;12.55;;;10.13;;
40951;SDS011;26682;51.660;19.338;2023-06-26T03:53:07;11.00;;;9.65;;
40951;SDS011;26682;51.660;19.338;2023-06-26T03:55:49;14.27;;;9.90;;
40951;SDS011;26682;51.660;19.338;2023-06-26T03:58:32;18.25;;;10.15;;
40951;SDS011;26682;51.660;19.338;2023-06-26T04:01:15;13.90;;;9.43;;
40951;SDS011;26682;51.660;19.338;2023-06-26T04:03:59;12.13;;;9.57;;
40951;SDS011;26682;51.660;19.338;2023-06-26T04:06:45;12.75;;;9.55;;
40951;SDS011;26682;51.660;19.338;2023-06-26T04:09:28;12.57;;;9.75;;
40951;SDS011;26682;51.660;19.338;2023-06-26T04:12:11;11.88;;;9.50;;
40951;SDS011;26682;51.660;19.338;2023-06-26T04:14:53;16.02;;;10.30;;
40951;SDS011;26682;51.660;19.338;2023-06-26T04:17:36;9.30;;;8.30;;
40951;SDS011;26682;51.660;19.338;2023-06-26T04:20:18;10.68;;;8.43;;
40951;SDS011;26682;51.660;19.338;2023-06-26T04:23:02;10.90;;;8.60;;
40951;SDS011;26682;51.660;19.338;2023-06-26T04:25:45;11.65;;;9.23;;
40951;SDS011;26682;51.660;19.338;2023-06-26T04:28:28;10.98;;;8.70;;
40951;SDS011;26682;51.660;19.338;2023-06-26T04:31:11;10.50;;;8.25;;
40951;SDS011;26682;51.660;19.338;2023-06-26T04:33:54;12.23;;;9.55;;
40951;SDS011;26682;51.660;19.338;2023-06-26T04:36:37;9.60;;;8.60;;
40951;SDS011;26682;51.660;19.338;2023-06-26T04:39:20;10.30;;;8.75;;
40951;SDS011;26682;51.660;19.338;2023-06-26T04:42:03;11.48;;;9.48;;
40951;SDS011;26682;51.660;19.338;2023-06-26T04:44:47;11.90;;;9.38;;
40951;SDS011;26682;51.660;19.338;2023-06-26T04:47:30;11.85;;;9.18;;
40951;SDS011;26682;51.660;19.338;2023-06-26T04:50:12;10.63;;;8.93;;
40951;SDS011;26682;51.660;19.338;2023-06-26T04:52:55;11.57;;;8.32;;
40951;SDS011;26682;51.660;19.338;2023-06-26T04:55:37;11.70;;;8.52;;
40951;SDS011;26682;51.660;19.338;2023-06-26T04:58:20;11.98;;;8.85;;
40951;SDS011;26682;51.660;19.338;2023-06-26T05:01:03;13.15;;;8.77;;
40951;SDS011;26682;51.660;19.338;2023-06-26T05:03:49;10.18;;;8.77;;
40951;SDS011;26682;51.660;19.338;2023-06-26T05:06:31;14.10;;;8.68;;
40951;SDS011;26682;51.660;19.338;2023-06-26T05:09:14;13.55;;;9.20;;
40951;SDS011;26682;51.660;19.338;2023-06-26T05:11:56;13.70;;;9.10;;
40951;SDS011;26682;51.660;19.338;2023-06-26T05:14:38;12.15;;;8.20;;
40951;SDS011;26682;51.660;19.338;2023-06-26T05:17:21;11.13;;;8.20;;
40951;SDS011;26682;51.660;19.338;2023-06-26T05:20:03;8.10;;;7.30;;
40951;SDS011;26682;51.660;19.338;2023-06-26T05:22:47;10.57;;;8.02;;
40951;SDS011;26682;51.660;19.338;2023-06-26T05:25:30;7.85;;;7.05;;
40951;SDS011;26682;51.660;19.338;2023-06-26T05:28:14;8.20;;;7.40;;
40951;SDS011;26682;51.660;19.338;2023-06-26T05:30:57;10.38;;;7.57;;
40951;SDS011;26682;51.660;19.338;2023-06-26T05:33:40;13.60;;;8.15;;
40951;SDS011;26682;51.660;19.338;2023-06-26T05:36:26;8.25;;;7.38;;
40951;SDS011;26682;51.660;19.338;2023-06-26T05:39:10;12.93;;;7.68;;
40951;SDS011;26682;51.660;19.338;2023-06-26T05:41:53;8.65;;;7.60;;
40951;SDS011;26682;51.660;19.338;2023-06-26T05:44:35;18.38;;;6.88;;
40951;SDS011;26682;51.660;19.338;2023-06-26T05:47:18;14.73;;;6.68;;
40951;SDS011;26682;51.660;19.338;2023-06-26T05:50:01;12.23;;;7.00;;
40951;SDS011;26682;51.660;19.338;2023-06-26T05:52:44;8.13;;;7.20;;
40951;SDS011;26682;51.660;19.338;2023-06-26T05:55:27;13.05;;;7.75;;
40951;SDS011;26682;51.660;19.338;2023-06-26T05:58:10;7.70;;;6.90;;
40951;SDS011;26682;51.660;19.338;2023-06-26T06:00:53;10.75;;;7.40;;
40951;SDS011;26682;51.660;19.338;2023-06-26T06:03:36;13.52;;;7.10;;
40951;SDS011;26682;51.660;19.338;2023-06-26T06:06:19;10.27;;;5.93;;
40951;SDS011;26682;51.660;19.338;2023-06-26T06:09:02;6.63;;;5.72;;
40951;SDS011;26682;51.660;19.338;2023-06-26T06:11:45;10.43;;;6.03;;
40951;SDS011;26682;51.660;19.338;2023-06-26T06:14:27;10.85;;;6.63;;
40951;SDS011;26682;51.660;19.338;2023-06-26T06:17:10;11.23;;;6.57;;
40951;SDS011;26682;51.660;19.338;2023-06-26T06:19:52;10.40;;;5.95;;
40951;SDS011;26682;51.660;19.338;2023-06-26T06:22:35;10.75;;;6.15;;
40951;SDS011;26682;51.660;19.338;2023-06-26T06:25:18;7.03;;;5.82;;
40951;SDS011;26682;51.660;19.338;2023-06-26T06:28:00;9.38;;;5.50;;
40951;SDS011;26682;51.660;19.338;2023-06-26T06:30:43;18.13;;;6.38;;
40951;SDS011;26682;51.660;19.338;2023-06-26T06:33:27;8.30;;;5.63;;
40951;SDS011;26682;51.660;19.338;2023-06-26T06:36:09;5.60;;;4.53;;
40951;SDS011;26682;51.660;19.338;2023-06-26T06:38:52;7.85;;;4.93;;
40951;SDS011;26682;51.660;19.338;2023-06-26T06:41:34;9.43;;;4.90;;
40951;SDS011;26682;51.660;19.338;2023-06-26T06:44:20;8.30;;;5.18;;
40951;SDS011;26682;51.660;19.338;2023-06-26T06:47:04;7.97;;;4.88;;
40951;SDS011;26682;51.660;19.338;2023-06-26T06:49:46;5.72;;;5.10;;
40951;SDS011;26682;51.660;19.338;2023-06-26T06:52:29;5.50;;;5.00;;
40951;SDS011;26682;51.660;19.338;2023-06-26T06:55:11;5.75;;;4.30;;
40951;SDS011;26682;51.660;19.338;2023-06-26T06:57:54;9.52;;;5.00;;
40951;SDS011;26682;51.660;19.338;2023-06-26T07:00:37;11.63;;;5.45;;
40951;SDS011;26682;51.660;19.338;2023-06-26T07:03:20;9.93;;;4.97;;
40951;SDS011;26682;51.660;19.338;2023-06-26T07:06:04;5.07;;;4.45;;
40951;SDS011;26682;51.660;19.338;2023-06-26T07:08:47;5.22;;;4.32;;
40951;SDS011;26682;51.660;19.338;2023-06-26T07:11:29;4.22;;;3.83;;
40951;SDS011;26682;51.660;19.338;2023-06-26T07:14:12;6.25;;;3.80;;
40951;SDS011;26682;51.660;19.338;2023-06-26T07:16:54;5.63;;;3.40;;
40951;SDS011;26682;51.660;19.338;2023-06-26T07:19:37;4.30;;;3.90;;
40951;SDS011;26682;51.660;19.338;2023-06-26T07:22:20;5.53;;;3.72;;
40951;SDS011;26682;51.660;19.338;2023-06-26T07:25:02;4.05;;;3.65;;
40951;SDS011;26682;51.660;19.338;2023-06-26T07:27:46;8.35;;;3.70;;
40951;SDS011;26682;51.660;19.338;2023-06-26T07:30:29;5.72;;;3.95;;
40951;SDS011;26682;51.660;19.338;2023-06-26T07:33:11;6.18;;;3.60;;
40951;SDS011;26682;51.660;19.338;2023-06-26T07:35:54;4.97;;;3.65;;
40951;SDS011;26682;51.660;19.338;2023-06-26T07:38:36;9.20;;;3.70;;
40951;SDS011;26682;51.660;19.338;2023-06-26T07:41:19;7.88;;;3.88;;
40951;SDS011;26682;51.660;19.338;2023-06-26T07:44:03;4.53;;;3.50;;
40951;SDS011;26682;51.660;19.338;2023-06-26T07:46:46;4.20;;;3.70;;
40951;SDS011;26682;51.660;19.338;2023-06-26T07:49:28;4.47;;;3.78;;
40951;SDS011;26682;51.660;19.338;2023-06-26T07:52:12;5.15;;;3.40;;
40951;SDS011;26682;51.660;19.338;2023-06-26T07:54:57;4.65;;;3.67;;
40951;SDS011;26682;51.660;19.338;2023-06-26T07:57:40;4.45;;;3.20;;
40951;SDS011;26682;51.660;19.338;2023-06-26T08:00:24;7.57;;;3.50;;
40951;SDS011;26682;51.660;19.338;2023-06-26T08:03:07;3.60;;;3.30;;
40951;SDS011;26682;51.660;19.338;2023-06-26T08:06:02;3.97;;;3.47;;
40951;SDS011;26682;51.660;19.338;2023-06-26T08:08:51;3.97;;;3.22;;
40951;SDS011;26682;51.660;19.338;2023-06-26T08:11:34;5.18;;;3.58;;
40951;SDS011;26682;51.660;19.338;2023-06-26T08:14:17;3.88;;;3.47;;
40951;SDS011;26682;51.660;19.338;2023-06-26T08:17:00;3.50;;;3.20;;
40951;SDS011;26682;51.660;19.338;2023-06-26T08:19:43;6.07;;;3.47;;
40951;SDS011;26682;51.660;19.338;2023-06-26T08:22:26;6.43;;;4.00;;
40951;SDS011;26682;51.660;19.338;2023-06-26T08:25:09;4.05;;;3.60;;
40951;SDS011;26682;51.660;19.338;2023-06-26T08:27:52;4.75;;;3.97;;
40951;SDS011;26682;51.660;19.338;2023-06-26T08:30:37;6.32;;;4.93;;
40951;SDS011;26682;51.660;19.338;2023-06-26T08:33:20;4.05;;;3.65;;
40951;SDS011;26682;51.660;19.338;2023-06-26T08:36:07;5.57;;;3.78;;
40951;SDS011;26682;51.660;19.338;2023-06-26T08:38:49;5.78;;;3.88;;
40951;SDS011;26682;51.660;19.338;2023-06-26T08:41:32;5.95;;;3.60;;
40951;SDS011;26682;51.660;19.338;2023-06-26T08:44:14;4.72;;;3.80;;
40951;SDS011;26682;51.660;19.338;2023-06-26T08:46:59;6.22;;;4.00;;
40951;SDS011;26682;51.660;19.338;2023-06-26T08:49:48;5.10;;;3.75;;
40951;SDS011;26682;51.660;19.338;2023-06-26T08:53:13;4.50;;;3.60;;
40951;SDS011;26682;51.660;19.338;2023-06-26T08:56:02;5.43;;;3.60;;
40951;SDS011;26682;51.660;19.338;2023-06-26T08:58:46;7.13;;;3.60;;
40951;SDS011;26682;51.660;19.338;2023-06-26T09:01:29;4.40;;;3.65;;
40951;SDS011;26682;51.660;19.338;2023-06-26T09:04:13;3.58;;;3.20;;
40951;SDS011;26682;51.660;19.338;2023-06-26T09:06:56;4.50;;;3.65;;
40951;SDS011;26682;51.660;19.338;2023-06-26T09:09:39;4.78;;;3.60;;
40951;SDS011;26682;51.660;19.338;2023-06-26T09:12:21;3.95;;;3.58;;
40951;SDS011;26682;51.660;19.338;2023-06-26T09:15:05;6.10;;;3.67;;
40951;SDS011;26682;51.660;19.338;2023-06-26T09:17:48;6.30;;;3.13;;
40951;SDS011;26682;51.660;19.338;2023-06-26T09:20:31;3.83;;;3.45;;
40951;SDS011;26682;51.660;19.338;2023-06-26T09:23:17;5.65;;;3.95;;
40951;SDS011;26682;51.660;19.338;2023-06-26T09:26:01;5.78;;;3.50;;
40951;SDS011;26682;51.660;19.338;2023-06-26T09:28:45;3.75;;;3.38;;
40951;SDS011;26682;51.660;19.338;2023-06-26T09:31:30;5.72;;;3.58;;
40951;SDS011;26682;51.660;19.338;2023-06-26T09:34:29;4.53;;;3.20;;
40951;SDS011;26682;51.660;19.338;2023-06-26T09:37:14;4.00;;;3.25;;
40951;SDS011;26682;51.660;19.338;2023-06-26T09:39:57;28.20;;;4.90;;
40951;SDS011;26682;51.660;19.338;2023-06-26T09:42:40;4.70;;;3.40;;
40951;SDS011;26682;51.660;19.338;2023-06-26T09:45:23;6.60;;;3.45;;
40951;SDS011;26682;51.660;19.338;2023-06-26T09:48:06;3.33;;;3.03;;
40951;SDS011;26682;51.660;19.338;2023-06-26T09:50:50;6.38;;;3.25;;
40951;SDS011;26682;51.660;19.338;2023-06-26T09:53:52;3.53;;;3.22;;
40951;SDS011;26682;51.660;19.338;2023-06-26T09:56:35;3.53;;;3.20;;
40951;SDS011;26682;51.660;19.338;2023-06-26T09:59:18;4.45;;;3.40;;
40951;SDS011;26682;51.660;19.338;2023-06-26T10:02:00;3.28;;;2.97;;
40951;SDS011;26682;51.660;19.338;2023-06-26T10:04:44;7.93;;;3.75;;
40951;SDS011;26682;51.660;19.338;2023-06-26T10:07:28;3.78;;;3.35;;
40951;SDS011;26682;51.660;19.338;2023-06-26T10:10:11;3.83;;;3.30;;
40951;SDS011;26682;51.660;19.338;2023-06-26T10:12:54;5.00;;;3.60;;
40951;SDS011;26682;51.660;19.338;2023-06-26T10:15:44;3.50;;;3.10;;
40951;SDS011;26682;51.660;19.338;2023-06-26T10:18:28;4.22;;;3.40;;
40951;SDS011;26682;51.660;19.338;2023-06-26T10:21:14;4.32;;;3.40;;
40951;SDS011;26682;51.660;19.338;2023-06-26T10:23:57;3.85;;;3.38;;
40951;SDS011;26682;51.660;19.338;2023-06-26T10:26:42;4.60;;;3.47;;
40951;SDS011;26682;51.660;19.338;2023-06-26T10:29:27;12.05;;;3.97;;
40951;SDS011;26682;51.660;19.338;2023-06-26T10:32:11;4.57;;;3.88;;
40951;SDS011;26682;51.660;19.338;2023-06-26T10:34:55;6.13;;;3.40;;
40951;SDS011;26682;51.660;19.338;2023-06-26T10:40:26;5.10;;;3.47;;
40951;SDS011;26682;51.660;19.338;2023-06-26T10:43:11;31.10;;;4.88;;
40951;SDS011;26682;51.660;19.338;2023-06-26T10:46:01;5.90;;;3.92;;
40951;SDS011;26682;51.660;19.338;2023-06-26T10:49:00;6.10;;;3.67;;
40951;SDS011;26682;51.660;19.338;2023-06-26T10:51:46;4.03;;;3.17;;
40951;SDS011;26682;51.660;19.338;2023-06-26T10:54:31;4.65;;;3.53;;
40951;SDS011;26682;51.660;19.338;2023-06-26T10:57:23;4.10;;;3.70;;
40951;SDS011;26682;51.660;19.338;2023-06-26T11:00:13;4.57;;;3.17;;
40951;SDS011;26682;51.660;19.338;2023-06-26T11:02:57;3.47;;;3.17;;
40951;SDS011;26682;51.660;19.338;2023-06-26T11:05:39;4.07;;;3.40;;
40951;SDS011;26682;51.660;19.338;2023-06-26T11:08:38;4.07;;;3.20;;
40951;SDS011;26682;51.660;19.338;2023-06-26T11:14:35;4.65;;;3.55;;
40951;SDS011;26682;51.660;19.338;2023-06-26T11:17:18;3.83;;;3.10;;
40951;SDS011;26682;51.660;19.338;2023-06-26T11:20:01;31.23;;;4.40;;
40951;SDS011;26682;51.660;19.338;2023-06-26T11:22:45;3.97;;;3.00;;
40951;SDS011;26682;51.660;19.338;2023-06-26T11:25:37;4.32;;;3.50;;
40951;SDS011;26682;51.660;19.338;2023-06-26T11:28:21;4.43;;;3.47;;
40951;SDS011;26682;51.660;19.338;2023-06-26T11:31:03;3.92;;;3.22;;
40951;SDS011;26682;51.660;19.338;2023-06-26T11:33:47;3.90;;;3.60;;
40951;SDS011;26682;51.660;19.338;2023-06-26T11:36:30;5.43;;;3.80;;
40951;SDS011;26682;51.660;19.338;2023-06-26T11:39:13;5.95;;;3.72;;
40951;SDS011;26682;51.660;19.338;2023-06-26T11:41:56;4.07;;;3.45;;
40951;SDS011;26682;51.660;19.338;2023-06-26T11:44:40;9.20;;;3.88;;
40951;SDS011;26682;51.660;19.338;2023-06-26T11:47:25;4.90;;;3.63;;
40951;SDS011;26682;51.660;19.338;2023-06-26T11:50:14;6.70;;;3.85;;
40951;SDS011;26682;51.660;19.338;2023-06-26T11:52:58;4.32;;;3.50;;
40951;SDS011;26682;51.660;19.338;2023-06-26T11:55:41;5.50;;;3.90;;
40951;SDS011;26682;51.660;19.338;2023-06-26T11:58:24;7.82;;;3.75;;
40951;SDS011;26682;51.660;19.338;2023-06-26T12:01:07;5.15;;;3.65;;
40951;SDS011;26682;51.660;19.338;2023-06-26T12:03:50;4.35;;;3.85;;
40951;SDS011;26682;51.660;19.338;2023-06-26T12:06:34;4.25;;;3.85;;
40951;SDS011;26682;51.660;19.338;2023-06-26T12:09:18;3.90;;;3.47;;
40951;SDS011;26682;51.660;19.338;2023-06-26T12:12:02;4.22;;;3.58;;
40951;SDS011;26682;51.660;19.338;2023-06-26T12:14:45;3.55;;;3.22;;
40951;SDS011;26682;51.660;19.338;2023-06-26T12:17:28;7.85;;;3.90;;
40951;SDS011;26682;51.660;19.338;2023-06-26T12:20:20;4.15;;;3.40;;
40951;SDS011;26682;51.660;19.338;2023-06-26T12:23:04;5.18;;;3.90;;
40951;SDS011;26682;51.660;19.338;2023-06-26T12:25:54;4.85;;;4.35;;
40951;SDS011;26682;51.660;19.338;2023-06-26T12:28:36;4.00;;;3.70;;
40951;SDS011;26682;51.660;19.338;2023-06-26T12:31:22;3.88;;;3.35;;
40951;SDS011;26682;51.660;19.338;2023-06-26T12:34:08;3.58;;;3.28;;
40951;SDS011;26682;51.660;19.338;2023-06-26T12:36:53;4.18;;;3.40;;
40951;SDS011;26682;51.660;19.338;2023-06-26T12:39:54;3.65;;;3.17;;
40951;SDS011;26682;51.660;19.338;2023-06-26T12:42:38;3.42;;;3.13;;
40951;SDS011;26682;51.660;19.338;2023-06-26T12:45:20;5.25;;;3.40;;
40951;SDS011;26682;51.660;19.338;2023-06-26T12:48:13;5.05;;;3.00;;
40951;SDS011;26682;51.660;19.338;2023-06-26T12:50:56;3.38;;;3.08;;
40951;SDS011;26682;51.660;19.338;2023-06-26T12:53:39;4.82;;;3.20;;
40951;SDS011;26682;51.660;19.338;2023-06-26T12:56:22;4.90;;;3.05;;
40951;SDS011;26682;51.660;19.338;2023-06-26T12:59:04;3.65;;;3.22;;
40951;SDS011;26682;51.660;19.338;2023-06-26T13:01:47;4.10;;;3.13;;
40951;SDS011;26682;51.660;19.338;2023-06-26T13:04:30;6.90;;;3.40;;
40951;SDS011;26682;51.660;19.338;2023-06-26T13:07:13;4.80;;;3.30;;
40951;SDS011;26682;51.660;19.338;2023-06-26T13:09:56;7.63;;;3.20;;
40951;SDS011;26682;51.660;19.338;2023-06-26T13:12:39;3.60;;;3.10;;
40951;SDS011;26682;51.660;19.338;2023-06-26T13:15:21;3.13;;;2.85;;
40951;SDS011;26682;51.660;19.338;2023-06-26T13:18:04;7.15;;;3.63;;
40951;SDS011;26682;51.660;19.338;2023-06-26T13:20:46;33.40;;;5.07;;
40951;SDS011;26682;51.660;19.338;2023-06-26T13:23:29;5.35;;;3.88;;
40951;SDS011;26682;51.660;19.338;2023-06-26T13:26:11;3.40;;;3.10;;
40951;SDS011;26682;51.660;19.338;2023-06-26T13:29:08;3.28;;;2.97;;
40951;SDS011;26682;51.660;19.338;2023-06-26T13:31:51;4.72;;;3.10;;
40951;SDS011;26682;51.660;19.338;2023-06-26T13:34:34;3.72;;;3.30;;
40951;SDS011;26682;51.660;19.338;2023-06-26T13:37:16;4.68;;;3.58;;
40951;SDS011;26682;51.660;19.338;2023-06-26T13:39:59;5.32;;;3.72;;
40951;SDS011;26682;51.660;19.338;2023-06-26T13:42:43;5.07;;;3.43;;
40951;SDS011;26682;51.660;19.338;2023-06-26T13:45:27;8.48;;;3.63;;
40951;SDS011;26682;51.660;19.338;2023-06-26T13:48:13;5.47;;;3.33;;
40951;SDS011;26682;51.660;19.338;2023-06-26T13:50:59;11.48;;;3.60;;
40951;SDS011;26682;51.660;19.338;2023-06-26T13:53:42;3.78;;;3.35;;
40951;SDS011;26682;51.660;19.338;2023-06-26T13:56:24;5.90;;;3.83;;
40951;SDS011;26682;51.660;19.338;2023-06-26T13:59:07;3.67;;;3.38;;
40951;SDS011;26682;51.660;19.338;2023-06-26T14:01:50;5.95;;;3.80;;
40951;SDS011;26682;51.660;19.338;2023-06-26T14:04:33;7.70;;;3.75;;
40951;SDS011;26682;51.660;19.338;2023-06-26T14:07:16;3.80;;;3.50;;
40951;SDS011;26682;51.660;19.338;2023-06-26T14:09:58;5.40;;;3.88;;
40951;SDS011;26682;51.660;19.338;2023-06-26T14:12:41;8.20;;;3.80;;
40951;SDS011;26682;51.660;19.338;2023-06-26T14:15:23;7.13;;;3.78;;
40951;SDS011;26682;51.660;19.338;2023-06-26T14:18:06;3.80;;;3.50;;
40951;SDS011;26682;51.660;19.338;2023-06-26T14:20:49;11.48;;;3.63;;
40951;SDS011;26682;51.660;19.338;2023-06-26T14:23:31;4.20;;;3.80;;
40951;SDS011;26682;51.660;19.338;2023-06-26T14:26:14;20.45;;;4.57;;
40951;SDS011;26682;51.660;19.338;2023-06-26T14:28:57;5.68;;;3.88;;
40951;SDS011;26682;51.660;19.338;2023-06-26T14:31:39;7.57;;;4.00;;
40951;SDS011;26682;51.660;19.338;2023-06-26T14:34:21;5.43;;;3.95;;
40951;SDS011;26682;51.660;19.338;2023-06-26T14:37:04;4.40;;;3.67;;
40951;SDS011;26682;51.660;19.338;2023-06-26T14:39:47;19.10;;;4.35;;
40951;SDS011;26682;51.660;19.338;2023-06-26T14:42:30;6.28;;;4.10;;
40951;SDS011;26682;51.660;19.338;2023-06-26T14:45:13;4.90;;;3.95;;
40951;SDS011;26682;51.660;19.338;2023-06-26T14:47:56;9.20;;;4.35;;
40951;SDS011;26682;51.660;19.338;2023-06-26T14:50:38;5.05;;;3.75;;
40951;SDS011;26682;51.660;19.338;2023-06-26T14:53:22;5.05;;;4.03;;
40951;SDS011;26682;51.660;19.338;2023-06-26T14:56:07;4.35;;;3.95;;
40951;SDS011;26682;51.660;19.338;2023-06-26T14:58:50;5.40;;;4.10;;
40951;SDS011;26682;51.660;19.338;2023-06-26T15:01:34;8.13;;;4.70;;
40951;SDS011;26682;51.660;19.338;2023-06-26T15:04:16;5.03;;;4.00;;
40951;SDS011;26682;51.660;19.338;2023-06-26T15:07:00;7.50;;;4.40;;
40951;SDS011;26682;51.660;19.338;2023-06-26T15:09:42;4.35;;;3.95;;
40951;SDS011;26682;51.660;19.338;2023-06-26T15:12:25;6.93;;;4.20;;
40951;SDS011;26682;51.660;19.338;2023-06-26T15:15:09;8.18;;;4.13;;
40951;SDS011;26682;51.660;19.338;2023-06-26T15:17:52;4.68;;;3.88;;
40951;SDS011;26682;51.660;19.338;2023-06-26T15:20:34;4.70;;;3.97;;
40951;SDS011;26682;51.660;19.338;2023-06-26T15:23:17;5.30;;;4.38;;
40951;SDS011;26682;51.660;19.338;2023-06-26T15:25:59;5.38;;;4.70;;
40951;SDS011;26682;51.660;19.338;2023-06-26T15:28:42;7.57;;;4.30;;
40951;SDS011;26682;51.660;19.338;2023-06-26T15:31:25;6.18;;;3.65;;
40951;SDS011;26682;51.660;19.338;2023-06-26T15:34:11;4.85;;;4.38;;
40951;SDS011;26682;51.660;19.338;2023-06-26T15:36:55;6.90;;;4.07;;
40951;SDS011;26682;51.660;19.338;2023-06-26T15:39:38;8.57;;;4.32;;
40951;SDS011;26682;51.660;19.338;2023-06-26T15:42:21;5.15;;;4.18;;
40951;SDS011;26682;51.660;19.338;2023-06-26T15:45:08;4.20;;;3.90;;
40951;SDS011;26682;51.660;19.338;2023-06-26T15:47:52;4.40;;;4.00;;
40951;SDS011;26682;51.660;19.338;2023-06-26T15:50:35;8.43;;;4.43;;
40951;SDS011;26682;51.660;19.338;2023-06-26T15:53:17;5.18;;;4.75;;
40951;SDS011;26682;51.660;19.338;2023-06-26T15:56:00;7.43;;;4.30;;
40951;SDS011;26682;51.660;19.338;2023-06-26T15:58:43;6.47;;;4.65;;
40951;SDS011;26682;51.660;19.338;2023-06-26T16:04:11;9.07;;;4.70;;
40951;SDS011;26682;51.660;19.338;2023-06-26T16:06:54;8.00;;;4.07;;
40951;SDS011;26682;51.660;19.338;2023-06-26T16:09:38;5.38;;;4.10;;
40951;SDS011;26682;51.660;19.338;2023-06-26T16:12:21;6.03;;;5.43;;
40951;SDS011;26682;51.660;19.338;2023-06-26T16:15:03;6.57;;;4.43;;
40951;SDS011;26682;51.660;19.338;2023-06-26T16:17:47;6.78;;;6.18;;
40951;SDS011;26682;51.660;19.338;2023-06-26T16:20:29;8.40;;;7.18;;
40951;SDS011;26682;51.660;19.338;2023-06-26T16:23:12;11.30;;;6.68;;